Terminal Aerodrome Forecast
Issued by NWS

Home | Current Version | Previous Version | Text Only | Print | Product List | Glossary On
Versions: 1 2 3 4 5 6 7 8 9 10 11 12 13 14 15 16 17 18 19 20 21 22 23 24 25 26 27 28 29 30 31 32 33 34 35
000
FTUS41 KBOX 280538
TAFHYA
TAF
KHYA 280538Z 2806/2906 34008KT 3SM -DZ BR OVC002
     FM281200 04004KT 1/2SM DZ FG OVC003
     FM281400 06004KT 1SM -DZ BR OVC003
     FM281700 07004KT 3SM BR OVC025
     FM282000 08004KT 3SM -RA BR OVC015=

USA.gov is the U.S. government's official web portal to all federal, state and local government web resources and services.